Time;durP1;ratioP1;P1;durP2;ratioP2;P2;SDS_P1;SDS_P2;PMS_P1;PMS_P2;Temp;Humidity;BMP_temperature;BMP_pressure;BME280_temperature;BME280_humidity;BME280_pressure;Samples;Min_cycle;Max_cycle;Signal;HPM_P1;HPM_P2
2023/07/02 00:01:00;;;;;;;4.88;3.30;;;23.80;96.70;;;;;;4987566;28;20521;-69
2023/07/02 00:03:28;;;;;;;4.75;3.38;;;24.00;96.70;;;;;;4990836;28;20057;-68
2023/07/02 00:05:57;;;;;;;4.72;3.28;;;24.00;96.70;;;;;;4990320;28;20451;-70
2023/07/02 00:08:25;;;;;;;4.57;2.90;;;24.10;96.70;;;;;;4989215;28;20049;-69
2023/07/02 00:10:53;;;;;;;4.65;2.72;;;24.10;96.70;;;;;;4983540;28;20068;-68
2023/07/02 00:13:21;;;;;;;6.13;3.15;;;24.00;96.70;;;;;;5006377;28;20128;-69
2023/07/02 00:15:51;;;;;;;5.18;2.90;;;24.10;96.70;;;;;;5015731;28;20044;-69
2023/07/02 00:18:19;;;;;;;4.95;2.83;;;24.10;96.70;;;;;;5019741;28;20487;-69
2023/07/02 00:20:47;;;;;;;4.70;3.20;;;24.00;96.70;;;;;;5000428;28;20877;-69
2023/07/02 00:23:16;;;;;;;5.18;2.92;;;23.90;96.70;;;;;;5004991;28;20054;-69
2023/07/02 00:25:45;;;;;;;3.97;3.17;;;23.90;96.70;;;;;;5014597;28;20092;-69
2023/07/02 00:28:13;;;;;;;5.75;2.80;;;23.90;96.70;;;;;;5014237;28;20056;-69
2023/07/02 00:30:44;;;;;;;4.55;3.05;;;23.90;96.70;;;;;;5022059;28;20041;-69
2023/07/02 00:33:16;;;;;;;4.00;3.10;;;23.90;96.70;;;;;;5025638;28;20152;-69
2023/07/02 00:35:44;;;;;;;5.03;2.70;;;24.00;96.70;;;;;;5008208;28;20053;-69
2023/07/02 00:38:12;;;;;;;4.60;2.95;;;23.90;96.70;;;;;;5021142;28;20080;-69
2023/07/02 00:40:40;;;;;;;5.07;3.25;;;23.80;96.70;;;;;;4999041;28;20049;-69
2023/07/02 00:43:12;;;;;;;4.85;3.00;;;23.80;96.70;;;;;;4990795;28;20037;-69
2023/07/02 00:45:40;;;;;;;5.18;2.97;;;23.80;96.70;;;;;;5026186;28;20041;-68
2023/07/02 00:48:09;;;;;;;5.72;3.30;;;23.80;96.70;;;;;;5023039;28;20064;-69
2023/07/02 00:50:40;;;;;;;5.22;2.80;;;23.80;96.70;;;;;;5005649;28;20145;-68
2023/07/02 00:53:10;;;;;;;4.68;3.00;;;23.70;96.70;;;;;;5023801;28;20340;-68
2023/07/02 00:55:38;;;;;;;5.57;3.75;;;23.60;96.70;;;;;;5007906;28;20606;-68
2023/07/02 00:58:08;;;;;;;4.53;3.78;;;23.60;96.70;;;;;;5003010;28;20045;-69
2023/07/02 01:00:36;;;;;;;4.25;3.22;;;23.70;96.70;;;;;;4992260;28;20053;-69
2023/07/02 01:03:04;;;;;;;6.45;3.67;;;23.60;96.70;;;;;;4998367;28;20042;-69
2023/07/02 01:05:35;;;;;;;6.97;3.22;;;23.70;96.70;;;;;;5000167;28;20060;-69
2023/07/02 01:08:05;;;;;;;5.93;3.80;;;23.80;96.70;;;;;;5013461;28;20073;-69
2023/07/02 01:10:35;;;;;;;5.35;3.47;;;23.60;96.70;;;;;;5024799;28;20067;-68
2023/07/02 01:13:08;;;;;;;6.30;3.38;;;23.60;96.70;;;;;;4993191;28;20474;-69
2023/07/02 01:15:38;;;;;;;4.40;3.35;;;23.50;96.70;;;;;;5021909;28;20133;-68
2023/07/02 01:18:07;;;;;;;5.45;3.38;;;23.50;96.70;;;;;;5000414;28;20053;-69
2023/07/02 01:20:37;;;;;;;4.80;3.40;;;23.50;96.70;;;;;;5009832;28;20049;-68
2023/07/02 01:23:06;;;;;;;7.88;3.85;;;23.50;96.70;;;;;;4995604;28;20049;-69
2023/07/02 01:25:36;;;;;;;4.38;3.22;;;23.40;96.70;;;;;;5013081;28;20160;-69
2023/07/02 01:28:05;;;;;;;8.90;3.65;;;23.40;96.70;;;;;;5024716;28;20139;-69
2023/07/02 01:30:34;;;;;;;5.45;3.42;;;23.30;96.70;;;;;;5017638;28;20128;-69
2023/07/02 01:33:03;;;;;;;4.38;3.33;;;23.30;96.70;;;;;;5017969;28;20049;-69
2023/07/02 01:35:32;;;;;;;6.53;3.03;;;23.30;96.70;;;;;;5022907;28;20049;-69
2023/07/02 01:38:01;;;;;;;6.63;3.33;;;23.30;96.70;;;;;;4997351;28;20060;-69
2023/07/02 01:40:29;;;;;;;4.88;3.35;;;23.40;96.70;;;;;;5018595;28;20076;-68
2023/07/02 01:42:57;;;;;;;5.30;3.55;;;23.40;96.70;;;;;;5009003;28;20368;-69
2023/07/02 01:45:26;;;;;;;6.93;3.40;;;23.40;96.70;;;;;;4983554;28;20088;-69
2023/07/02 01:47:54;;;;;;;6.82;3.42;;;23.30;96.70;;;;;;5012559;28;20041;-69
2023/07/02 01:50:22;;;;;;;9.40;3.38;;;23.30;96.70;;;;;;5022778;28;20049;-69
2023/07/02 01:52:50;;;;;;;6.30;3.50;;;23.30;96.70;;;;;;5007606;28;20136;-69
2023/07/02 01:55:20;;;;;;;8.40;3.60;;;23.20;96.70;;;;;;4982685;28;20594;-69
2023/07/02 02:09:56;;;;;;;8.60;3.17;;;23.20;96.70;;;;;;5000809;28;20041;-69
2023/07/02 02:12:25;;;;;;;6.35;3.67;;;23.20;96.70;;;;;;5009347;28;20046;-69
2023/07/02 02:14:54;;;;;;;4.32;3.20;;;23.10;96.70;;;;;;5024182;28;20562;-69
2023/07/02 02:17:23;;;;;;;7.45;3.28;;;23.10;96.70;;;;;;5007001;28;20049;-69
2023/07/02 02:19:51;;;;;;;5.95;2.95;;;23.10;96.70;;;;;;5014480;28;20045;-69
2023/07/02 02:22:20;;;;;;;5.28;2.97;;;23.10;96.70;;;;;;5024613;28;20051;-69
2023/07/02 02:24:48;;;;;;;7.28;3.60;;;23.00;96.70;;;;;;5015236;28;20047;-69
2023/07/02 02:27:16;;;;;;;7.47;3.53;;;22.90;96.70;;;;;;5002531;28;20045;-69
2023/07/02 02:29:45;;;;;;;9.15;3.70;;;22.90;96.70;;;;;;5022653;28;20128;-69
2023/07/02 02:32:17;;;;;;;5.13;3.80;;;22.90;96.70;;;;;;5014435;28;20075;-69
2023/07/02 02:34:45;;;;;;;8.48;3.40;;;23.00;96.70;;;;;;5023542;28;20056;-69
2023/07/02 02:37:13;;;;;;;10.13;3.03;;;22.90;96.70;;;;;;4982705;28;20056;-69
2023/07/02 02:39:42;;;;;;;5.28;3.38;;;22.90;96.70;;;;;;5019823;28;20052;-70
2023/07/02 02:42:11;;;;;;;9.32;3.78;;;23.00;96.70;;;;;;5012628;28;20638;-71
2023/07/02 02:44:39;;;;;;;7.07;3.88;;;23.00;96.70;;;;;;5006272;28;20045;-70
2023/07/02 02:47:09;;;;;;;5.50;3.38;;;22.90;96.70;;;;;;4982280;28;20076;-70
2023/07/02 02:49:39;;;;;;;6.88;3.50;;;22.90;96.70;;;;;;5021123;28;20049;-70
2023/07/02 02:52:07;;;;;;;6.57;3.72;;;23.00;96.70;;;;;;5004959;28;20064;-70
2023/07/02 02:54:36;;;;;;;5.50;3.53;;;22.90;96.70;;;;;;5008239;28;20087;-71
2023/07/02 02:57:04;;;;;;;9.10;3.55;;;22.90;96.70;;;;;;4996955;28;20049;-70
2023/07/02 03:04:08;;;;;;;7.68;3.45;;;22.90;96.70;;;;;;5003985;28;20486;-70
2023/07/02 03:06:37;;;;;;;8.27;4.00;;;22.90;96.70;;;;;;4990932;28;20049;-70
2023/07/02 03:09:06;;;;;;;6.43;3.63;;;22.90;96.70;;;;;;5009383;28;20467;-70
2023/07/02 03:11:34;;;;;;;5.63;3.80;;;22.80;96.70;;;;;;4993155;28;20049;-70
2023/07/02 04:17:20;;;;;;;5.82;3.28;;;22.70;96.70;;;;;;5014869;28;20060;-69
2023/07/02 04:19:48;;;;;;;8.57;3.50;;;22.40;96.70;;;;;;5003836;28;20414;-69
2023/07/02 04:22:18;;;;;;;4.70;3.20;;;22.10;96.70;;;;;;5026138;28;20056;-69
2023/07/02 04:49:52;;;;;;;6.05;4.25;;;22.10;96.70;;;;;;5009963;28;20072;-68
2023/07/02 04:52:20;;;;;;;6.65;4.22;;;22.40;96.70;;;;;;5007205;28;20060;-68
2023/07/02 04:54:48;;;;;;;7.13;4.50;;;22.50;96.70;;;;;;4996230;28;20488;-68
2023/07/02 04:57:16;;;;;;;8.18;4.53;;;22.70;96.70;;;;;;5020658;28;20041;-68
2023/07/02 04:59:44;;;;;;;8.20;4.03;;;22.70;96.70;;;;;;5006581;28;20052;-69
2023/07/02 05:02:12;;;;;;;7.60;4.43;;;22.80;96.70;;;;;;5013641;28;20041;-69
2023/07/02 05:04:40;;;;;;;10.43;4.55;;;22.90;96.70;;;;;;5001219;28;20144;-69
2023/07/02 05:07:10;;;;;;;7.40;4.80;;;22.90;96.70;;;;;;5025991;28;20041;-69
2023/07/02 05:09:38;;;;;;;8.48;4.93;;;22.90;96.70;;;;;;5024190;28;20049;-69
2023/07/02 05:12:06;;;;;;;9.77;5.50;;;22.80;96.70;;;;;;5019430;28;20052;-69
2023/07/02 05:14:34;;;;;;;8.15;5.35;;;22.80;96.70;;;;;;4995578;28;20033;-69
2023/07/02 05:17:03;;;;;;;6.47;4.90;;;22.90;96.70;;;;;;5015170;28;20128;-69
2023/07/02 05:19:31;;;;;;;6.82;4.80;;;23.00;96.70;;;;;;4992707;28;20054;-69
2023/07/02 05:21:59;;;;;;;6.28;5.00;;;23.00;96.70;;;;;;5014134;28;20041;-69
2023/07/02 05:24:28;;;;;;;9.13;5.82;;;23.20;96.70;;;;;;5000321;28;20354;-69
2023/07/02 05:26:56;;;;;;;7.93;5.45;;;23.10;96.70;;;;;;4999983;28;20531;-69
2023/07/02 05:29:24;;;;;;;6.47;4.70;;;23.00;96.70;;;;;;4983565;28;20053;-69
2023/07/02 05:31:52;;;;;;;9.85;5.47;;;23.10;96.70;;;;;;5024819;28;20041;-69
2023/07/02 05:34:20;;;;;;;11.05;4.90;;;23.10;96.70;;;;;;5024915;28;20132;-69
2023/07/02 05:36:49;;;;;;;6.93;5.68;;;23.20;96.70;;;;;;5015804;28;20064;-69
2023/07/02 05:39:17;;;;;;;10.35;5.15;;;23.20;96.70;;;;;;5007953;28;20650;-69
2023/07/02 05:41:46;;;;;;;7.00;4.15;;;23.20;96.70;;;;;;5000596;28;20049;-69
2023/07/02 05:44:14;;;;;;;7.75;4.68;;;23.30;96.70;;;;;;5009998;28;20046;-69
2023/07/02 05:46:44;;;;;;;9.23;4.90;;;23.30;96.70;;;;;;5010423;28;20623;-69
2023/07/02 05:49:12;;;;;;;7.78;4.60;;;23.30;96.70;;;;;;5006213;28;20049;-69
2023/07/02 05:51:40;;;;;;;7.35;4.88;;;23.20;96.70;;;;;;5022787;28;20044;-69
2023/07/02 05:54:08;;;;;;;6.30;4.03;;;23.20;96.70;;;;;;5014130;28;20094;-69
2023/07/02 05:56:36;;;;;;;7.60;4.78;;;23.30;96.70;;;;;;5011715;28;20095;-69
2023/07/02 05:59:06;;;;;;;7.20;4.68;;;23.30;96.70;;;;;;5023585;28;20053;-69
2023/07/02 06:01:34;;;;;;;8.02;4.32;;;23.40;96.70;;;;;;5025133;28;20057;-69
2023/07/02 06:04:02;;;;;;;5.68;4.63;;;23.40;96.70;;;;;;5022646;28;20054;-69
2023/07/02 06:06:30;;;;;;;5.85;4.38;;;23.50;96.70;;;;;;4994818;28;20710;-69
2023/07/02 06:08:58;;;;;;;9.02;5.25;;;23.60;96.70;;;;;;5006603;28;20061;-69
2023/07/02 06:11:26;;;;;;;8.32;4.45;;;23.60;96.70;;;;;;5001297;28;20042;-69
2023/07/02 06:13:55;;;;;;;7.93;5.15;;;23.60;96.70;;;;;;5007681;28;20053;-69
2023/07/02 06:16:25;;;;;;;5.32;4.35;;;23.60;96.70;;;;;;4998148;28;20053;-69
2023/07/02 06:18:53;;;;;;;6.97;5.00;;;23.60;96.70;;;;;;5021284;28;20124;-69
2023/07/02 06:21:21;;;;;;;6.65;4.32;;;23.60;96.70;;;;;;5014154;28;20077;-69
2023/07/02 06:23:49;;;;;;;8.50;4.63;;;23.60;96.70;;;;;;5013438;28;20710;-69
2023/07/02 06:26:17;;;;;;;6.13;4.03;;;23.50;96.70;;;;;;5010745;28;20052;-69
2023/07/02 06:28:45;;;;;;;5.80;4.18;;;23.60;96.70;;;;;;5024438;28;20057;-69
2023/07/02 06:31:12;;;;;;;6.78;4.65;;;23.70;96.70;;;;;;5019258;28;20041;-69
2023/07/02 06:33:42;;;;;;;7.45;4.43;;;23.80;96.70;;;;;;5023573;28;20049;-69
2023/07/02 06:36:13;;;;;;;6.47;3.85;;;23.80;96.70;;;;;;5019831;28;20049;-69
2023/07/02 06:38:44;;;;;;;10.25;3.70;;;23.80;96.70;;;;;;5014099;28;20061;-69
2023/07/02 06:41:12;;;;;;;6.72;3.55;;;23.90;96.70;;;;;;5012293;28;20041;-69
2023/07/02 06:43:43;;;;;;;6.47;3.72;;;23.90;96.70;;;;;;5013322;28;20045;-69
2023/07/02 06:46:12;;;;;;;4.55;3.60;;;24.00;96.70;;;;;;5006706;28;20139;-69
2023/07/02 06:48:40;;;;;;;8.38;3.92;;;24.00;96.70;;;;;;5009558;28;20049;-69
2023/07/02 06:51:12;;;;;;;6.20;4.80;;;24.00;96.70;;;;;;5003581;28;20046;-69
2023/07/02 06:53:40;;;;;;;6.30;3.55;;;24.00;96.70;;;;;;5016189;28;20053;-69
2023/07/02 06:56:11;;;;;;;5.90;3.85;;;24.00;96.70;;;;;;5024395;28;20041;-69
2023/07/02 06:58:42;;;;;;;8.20;3.85;;;24.10;96.70;;;;;;5015019;28;20052;-69
2023/07/02 07:01:10;;;;;;;7.53;4.30;;;24.10;96.70;;;;;;5023837;28;20053;-69
2023/07/02 07:03:38;;;;;;;4.30;3.42;;;24.20;96.70;;;;;;5022527;28;20048;-69
2023/07/02 07:06:06;;;;;;;5.88;3.67;;;24.30;96.70;;;;;;4998211;28;20060;-69
2023/07/02 07:08:38;;;;;;;6.07;3.85;;;24.40;96.70;;;;;;5003148;28;20527;-69
2023/07/02 07:11:06;;;;;;;4.35;3.30;;;24.50;96.70;;;;;;5005973;28;20065;-69
2023/07/02 07:13:34;;;;;;;4.63;3.05;;;24.60;96.70;;;;;;5019828;28;20042;-69
2023/07/02 07:16:02;;;;;;;6.10;3.50;;;24.60;96.70;;;;;;5022236;28;20273;-69
2023/07/02 07:18:30;;;;;;;5.60;3.50;;;24.70;96.70;;;;;;5004110;28;20149;-69
2023/07/02 07:21:00;;;;;;;5.32;3.22;;;24.70;96.70;;;;;;4996813;28;20132;-69
2023/07/02 07:23:27;;;;;;;5.00;3.10;;;24.80;96.70;;;;;;4990949;28;20045;-69
2023/07/02 07:25:57;;;;;;;4.22;3.30;;;24.90;96.70;;;;;;5000371;28;20057;-69
2023/07/02 07:28:24;;;;;;;4.90;3.10;;;24.90;96.70;;;;;;5020642;28;20045;-68
2023/07/02 07:30:52;;;;;;;9.20;3.95;;;25.00;96.70;;;;;;5021940;28;20049;-68
2023/07/02 07:33:20;;;;;;;4.85;3.30;;;25.00;96.70;;;;;;4994916;28;20368;-69
2023/07/02 07:35:48;;;;;;;6.32;3.20;;;25.20;96.70;;;;;;5003723;28;20037;-69
2023/07/02 07:38:16;;;;;;;6.40;3.58;;;25.20;96.70;;;;;;4999378;28;20065;-68
2023/07/02 07:40:44;;;;;;;5.53;3.30;;;25.20;96.70;;;;;;5003865;28;20048;-69
2023/07/02 07:43:14;;;;;;;6.05;3.28;;;25.20;96.70;;;;;;5006864;28;20119;-69
2023/07/02 07:45:42;;;;;;;6.50;3.40;;;25.20;96.70;;;;;;4987445;28;20610;-69
2023/07/02 07:48:10;;;;;;;6.70;3.50;;;25.20;96.70;;;;;;4998409;28;20060;-69
2023/07/02 07:50:38;;;;;;;6.60;3.47;;;25.30;96.70;;;;;;4998650;28;20621;-69
2023/07/02 07:53:05;;;;;;;5.40;2.97;;;25.20;96.70;;;;;;5022871;28;20389;-69
2023/07/02 07:55:33;;;;;;;4.47;3.00;;;25.10;96.70;;;;;;5023281;28;20518;-69
2023/07/02 07:58:01;;;;;;;4.07;2.92;;;25.10;96.70;;;;;;5000829;28;20125;-69
2023/07/02 08:00:31;;;;;;;4.03;2.60;;;25.20;96.70;;;;;;5002220;28;20058;-69
2023/07/02 08:03:00;;;;;;;4.28;2.80;;;25.30;96.70;;;;;;5009703;28;20098;-70
2023/07/02 08:05:29;;;;;;;4.18;2.70;;;25.40;96.70;;;;;;5010694;28;20602;-69
2023/07/02 08:07:58;;;;;;;5.40;3.00;;;25.50;96.70;;;;;;5015582;28;20037;-69
2023/07/02 08:10:27;;;;;;;7.25;3.08;;;25.50;96.70;;;;;;4981663;28;20053;-69
2023/07/02 08:12:55;;;;;;;5.55;2.63;;;25.60;96.70;;;;;;5007017;28;20128;-69
2023/07/02 08:15:23;;;;;;;4.00;2.70;;;25.70;96.70;;;;;;5023176;28;20052;-69
2023/07/02 08:17:54;;;;;;;5.38;3.10;;;25.70;96.70;;;;;;5000854;28;20490;-69
2023/07/02 08:20:23;;;;;;;5.20;2.97;;;25.80;96.70;;;;;;5021800;28;20052;-69
2023/07/02 08:22:51;;;;;;;3.72;2.63;;;25.80;96.70;;;;;;5002364;28;20519;-69
2023/07/02 08:25:21;;;;;;;7.07;3.20;;;26.00;96.70;;;;;;4998784;28;20447;-68
2023/07/02 08:27:50;;;;;;;4.20;3.15;;;26.20;96.70;;;;;;5008882;28;20573;-69
2023/07/02 08:30:18;;;;;;;4.03;2.78;;;26.20;96.70;;;;;;5007752;28;20042;-69
2023/07/02 08:32:47;;;;;;;3.65;2.60;;;26.30;96.70;;;;;;4987161;28;20076;-69
2023/07/02 08:35:16;;;;;;;5.65;3.00;;;26.40;96.70;;;;;;5018345;28;20115;-72
2023/07/02 08:37:44;;;;;;;3.78;2.97;;;26.40;96.70;;;;;;4999605;28;20192;-70
2023/07/02 08:40:19;;;;;;;5.68;3.20;;;26.50;96.70;;;;;;5018187;28;20065;-70
2023/07/02 08:42:48;;;;;;;9.30;3.67;;;26.60;96.70;;;;;;5004457;28;20446;-70
2023/07/02 08:45:16;;;;;;;5.80;3.42;;;26.60;96.70;;;;;;5009594;28;20081;-70
2023/07/02 08:47:47;;;;;;;5.20;2.88;;;26.50;96.70;;;;;;5003369;28;20396;-70
2023/07/02 08:50:17;;;;;;;4.78;3.20;;;26.40;96.70;;;;;;4996907;28;20210;-70
2023/07/02 08:52:45;;;;;;;5.93;3.20;;;26.40;96.70;;;;;;4998875;28;20414;-71
2023/07/02 08:55:13;;;;;;;6.10;3.00;;;26.30;96.70;;;;;;5009279;28;20698;-71
2023/07/02 08:57:49;;;;;;;6.40;3.00;;;26.60;96.70;;;;;;5026250;28;20099;-71
2023/07/02 09:00:17;;;;;;;6.47;3.30;;;26.80;96.70;;;;;;4997148;28;20053;-70
2023/07/02 09:02:46;;;;;;;5.38;3.30;;;26.90;96.70;;;;;;5006525;28;20416;-74
2023/07/02 09:05:16;;;;;;;4.95;3.05;;;27.10;96.70;;;;;;4973307;28;20135;-74
2023/07/02 09:07:45;;;;;;;5.47;3.00;;;27.30;96.70;;;;;;4995289;28;20045;-71
2023/07/02 09:10:27;;;;;;;5.35;3.10;;;27.40;96.70;;;;;;5003531;28;20045;-71
2023/07/02 09:13:05;;;;;;;4.10;3.08;;;27.50;96.70;;;;;;5012722;28;20124;-73
2023/07/02 09:15:37;;;;;;;6.65;3.30;;;27.50;96.70;;;;;;5009591;28;20045;-75
2023/07/02 09:18:18;;;;;;;6.47;2.58;;;27.30;96.70;;;;;;5011527;28;20041;-77
2023/07/02 09:20:50;;;;;;;6.43;3.05;;;27.30;96.70;;;;;;5002691;28;20070;-76
2023/07/02 09:23:18;;;;;;;5.20;2.78;;;27.50;96.70;;;;;;4979028;28;20127;-76
2023/07/02 09:25:47;;;;;;;4.95;2.47;;;27.70;96.70;;;;;;5006268;28;20069;-73
2023/07/02 09:28:16;;;;;;;4.60;3.22;;;27.80;96.70;;;;;;4992372;28;20041;-72
2023/07/02 09:30:55;;;;;;;5.68;3.00;;;27.80;96.70;;;;;;4999287;28;20096;-72
2023/07/02 09:33:24;;;;;;;5.18;3.17;;;27.80;96.70;;;;;;5013721;28;20046;-72
2023/07/02 09:35:54;;;;;;;5.05;2.88;;;27.80;96.70;;;;;;4988377;28;20557;-72
2023/07/02 09:38:22;;;;;;;5.78;2.53;;;27.90;96.70;;;;;;5002660;28;20151;-72
2023/07/02 09:40:51;;;;;;;4.05;3.17;;;27.90;96.70;;;;;;5002584;28;20041;-72
2023/07/02 09:43:21;;;;;;;6.32;3.00;;;27.70;96.70;;;;;;4986551;28;20042;-72
2023/07/02 09:45:50;;;;;;;5.63;3.13;;;27.60;96.70;;;;;;4985091;28;20038;-72
2023/07/02 09:48:23;;;;;;;7.20;2.97;;;27.60;96.70;;;;;;5008138;28;20041;-72
2023/07/02 09:50:54;;;;;;;5.30;2.65;;;27.70;96.70;;;;;;5010772;28;20044;-72
2023/07/02 09:53:22;;;;;;;7.03;2.63;;;27.70;96.70;;;;;;5007036;28;20156;-74
2023/07/02 09:55:50;;;;;;;5.30;2.72;;;27.80;96.70;;;;;;4987394;28;20078;-74
2023/07/02 09:58:19;;;;;;;6.03;2.42;;;28.00;96.70;;;;;;5010459;28;20121;-76
2023/07/02 10:00:46;;;;;;;6.40;2.83;;;28.10;96.70;;;;;;5006869;28;20052;-72
2023/07/02 10:03:15;;;;;;;5.22;2.65;;;28.00;96.70;;;;;;4980622;28;21148;-71
2023/07/02 10:05:43;;;;;;;4.40;2.50;;;28.00;96.70;;;;;;4997518;28;20037;-71
2023/07/02 10:08:22;;;;;;;8.32;2.88;;;28.10;96.70;;;;;;5004863;28;20537;-72
2023/07/02 10:10:50;;;;;;;5.20;2.60;;;28.10;96.70;;;;;;4979798;28;20602;-71
2023/07/02 10:13:27;;;;;;;6.28;2.80;;;28.30;96.70;;;;;;4994715;28;20049;-71
2023/07/02 10:16:01;;;;;;;4.57;2.63;;;28.40;96.70;;;;;;4998896;28;20062;-71
2023/07/02 10:18:29;;;;;;;9.05;2.72;;;28.50;96.70;;;;;;4982143;28;20077;-71
2023/07/02 10:20:57;;;;;;;5.65;2.38;;;28.50;96.70;;;;;;4983213;28;20053;-71
2023/07/02 10:23:35;;;;;;;5.18;2.40;;;28.60;96.70;;;;;;4982438;28;20709;-71
2023/07/02 10:26:16;;;;;;;4.32;2.47;;;28.70;96.70;;;;;;4966038;28;20053;-71
2023/07/02 10:28:56;;;;;;;6.65;2.75;;;28.80;96.70;;;;;;4985161;28;20042;-71
2023/07/02 10:31:24;;;;;;;3.47;2.10;;;28.90;96.70;;;;;;4993852;28;20050;-71
2023/07/02 10:33:52;;;;;;;4.47;2.60;;;29.10;96.70;;;;;;4984802;28;20042;-72
2023/07/02 10:36:22;;;;;;;3.38;2.10;;;29.30;96.70;;;;;;4973675;28;20050;-72
2023/07/02 10:38:52;;;;;;;6.32;2.38;;;29.40;96.70;;;;;;4990223;28;20582;-74
2023/07/02 10:41:25;;;;;;;3.65;2.35;;;29.40;96.70;;;;;;4968876;28;20074;-73
2023/07/02 10:43:53;;;;;;;5.95;2.60;;;29.10;96.70;;;;;;4991328;28;20050;-73
2023/07/02 10:46:21;;;;;;;4.82;2.50;;;28.90;96.70;;;;;;4981979;28;20043;-74
2023/07/02 10:48:53;;;;;;;7.00;2.65;;;28.90;96.70;;;;;;4982268;28;20052;-74
2023/07/02 10:51:22;;;;;;;5.03;2.33;;;28.90;96.70;;;;;;4966388;28;20065;-74
2023/07/02 10:54:02;;;;;;;4.20;2.83;;;28.90;96.70;;;;;;4962680;28;20145;-74
2023/07/02 10:56:30;;;;;;;3.85;2.58;;;28.90;96.70;;;;;;4975124;28;20408;-75
2023/07/02 10:58:58;;;;;;;5.10;2.42;;;28.80;96.70;;;;;;4976306;28;20075;-72
2023/07/02 11:01:28;;;;;;;6.97;2.60;;;28.90;96.70;;;;;;4965590;28;20075;-72
2023/07/02 11:03:58;;;;;;;6.40;3.20;;;28.90;96.70;;;;;;4973349;28;20054;-75
2023/07/02 11:06:27;;;;;;;5.75;3.17;;;28.80;96.70;;;;;;4965865;28;20051;-73
2023/07/02 11:08:55;;;;;;;7.45;2.85;;;29.20;96.70;;;;;;4982353;28;20073;-71
2023/07/02 11:11:24;;;;;;;6.22;2.58;;;29.60;96.70;;;;;;4972541;28;20042;-73
2023/07/02 11:13:53;;;;;;;5.65;2.70;;;29.80;96.70;;;;;;4968473;28;20105;-73
2023/07/02 11:16:24;;;;;;;6.40;3.10;;;29.90;96.70;;;;;;4998353;28;20064;-73
2023/07/02 11:18:53;;;;;;;6.50;2.72;;;30.00;96.70;;;;;;5021564;28;20124;-73
2023/07/02 11:21:21;;;;;;;8.65;3.15;;;29.90;96.70;;;;;;4999092;28;20050;-73
2023/07/02 11:23:49;;;;;;;3.95;2.13;;;29.70;96.70;;;;;;4998320;28;20624;-73
2023/07/02 11:26:17;;;;;;;3.95;2.30;;;29.90;96.70;;;;;;4992525;28;20055;-72
2023/07/02 11:28:51;;;;;;;4.75;2.60;;;30.00;96.70;;;;;;4985034;28;20065;-73
2023/07/02 11:31:26;;;;;;;4.68;2.80;;;30.20;96.70;;;;;;4993783;28;20511;-72
2023/07/02 11:33:57;;;;;;;4.60;2.35;;;30.20;96.70;;;;;;5007759;28;20057;-72
2023/07/02 11:36:34;;;;;;;6.32;2.83;;;30.20;96.70;;;;;;4992155;28;20047;-73
2023/07/02 11:39:02;;;;;;;6.10;2.33;;;30.30;96.70;;;;;;4975758;28;20054;-73
2023/07/02 11:41:37;;;;;;;2.88;2.25;;;30.40;96.70;;;;;;5018766;28;20050;-72
2023/07/02 11:44:07;;;;;;;6.07;2.75;;;30.50;96.70;;;;;;5005456;28;20047;-73
2023/07/02 11:46:35;;;;;;;4.68;2.25;;;30.50;96.70;;;;;;5002132;28;20053;-73
2023/07/02 11:49:10;;;;;;;5.57;3.22;;;30.60;96.70;;;;;;5012286;28;20486;-72
2023/07/02 11:51:38;;;;;;;3.28;2.13;;;30.80;96.70;;;;;;5018809;28;20052;-74
2023/07/02 11:54:07;;;;;;;4.70;2.60;;;30.70;96.70;;;;;;5007024;28;20049;-75
2023/07/02 11:56:34;;;;;;;6.68;2.70;;;30.60;96.70;;;;;;4994980;28;20038;-72
2023/07/02 11:59:02;;;;;;;7.22;2.75;;;30.50;96.70;;;;;;5004705;28;20569;-71
2023/07/02 12:01:33;;;;;;;7.45;2.53;;;30.50;96.70;;;;;;5022307;28;20488;-73
2023/07/02 12:04:01;;;;;;;5.18;2.10;;;30.60;96.70;;;;;;4996519;28;20041;-71
2023/07/02 12:06:29;;;;;;;5.07;2.35;;;30.50;96.70;;;;;;4979256;28;20038;-72
2023/07/02 12:08:57;;;;;;;8.60;2.60;;;30.50;96.70;;;;;;5002358;28;20051;-71
2023/07/02 12:11:25;;;;;;;3.42;2.05;;;30.70;96.70;;;;;;5009353;28;20042;-72
2023/07/02 12:13:52;;;;;;;3.40;1.80;;;30.70;96.70;;;;;;5002475;28;20037;-72
2023/07/02 12:16:20;;;;;;;4.90;1.80;;;30.80;96.70;;;;;;5018909;28;20129;-73
2023/07/02 12:18:50;;;;;;;4.28;1.70;;;30.90;96.70;;;;;;5011298;28;20050;-71
2023/07/02 12:21:19;;;;;;;4.50;2.22;;;30.90;96.70;;;;;;5013916;28;20049;-72
2023/07/02 12:23:47;;;;;;;4.88;2.45;;;30.80;96.70;;;;;;4987786;28;20046;-72
2023/07/02 12:26:15;;;;;;;2.83;1.88;;;30.90;96.70;;;;;;5000648;28;20046;-73
2023/07/02 12:28:42;;;;;;;3.55;1.90;;;30.90;96.70;;;;;;5018536;28;20041;-73
2023/07/02 12:31:12;;;;;;;5.78;2.15;;;30.90;96.70;;;;;;5003007;28;20105;-73
2023/07/02 12:33:40;;;;;;;3.03;1.50;;;31.10;96.70;;;;;;4993842;28;20049;-73
2023/07/02 12:36:10;;;;;;;3.65;1.70;;;31.20;96.70;;;;;;4987508;28;20097;-73
2023/07/02 12:38:38;;;;;;;4.13;1.65;;;31.10;96.70;;;;;;5009085;28;20046;-73
2023/07/02 12:41:06;;;;;;;4.68;1.63;;;31.10;96.70;;;;;;5004939;28;20044;-72
2023/07/02 12:43:33;;;;;;;4.70;1.63;;;31.10;96.70;;;;;;4986378;28;20045;-72
2023/07/02 12:46:01;;;;;;;3.80;1.77;;;31.20;96.70;;;;;;5006043;28;20033;-72
2023/07/02 12:48:29;;;;;;;2.75;1.35;;;31.20;96.70;;;;;;5001528;28;20073;-71
2023/07/02 12:50:58;;;;;;;3.85;1.40;;;31.30;96.70;;;;;;4984568;28;20042;-72
2023/07/02 12:53:28;;;;;;;4.13;1.60;;;31.10;96.70;;;;;;5007866;28;20049;-72
2023/07/02 12:55:56;;;;;;;4.28;1.80;;;31.10;96.70;;;;;;5006976;28;20121;-72
2023/07/02 12:58:24;;;;;;;4.85;1.83;;;31.30;96.70;;;;;;4974488;28;20048;-73
2023/07/02 13:00:52;;;;;;;6.18;1.70;;;31.40;96.70;;;;;;4985687;28;20041;-71
2023/07/02 13:03:20;;;;;;;4.97;1.80;;;31.50;96.70;;;;;;5007027;28;20073;-72
2023/07/02 13:05:48;;;;;;;4.22;1.90;;;31.60;96.70;;;;;;4992715;28;20416;-72
2023/07/02 13:08:17;;;;;;;3.83;1.70;;;31.60;96.70;;;;;;4992594;28;20080;-72
2023/07/02 13:10:46;;;;;;;4.07;1.67;;;31.80;96.70;;;;;;4989601;28;20567;-72
2023/07/02 13:13:14;;;;;;;2.50;1.63;;;31.70;96.70;;;;;;5011285;28;20041;-73
2023/07/02 13:15:50;;;;;;;3.67;1.80;;;32.00;96.70;;;;;;4998397;28;20056;-71
2023/07/02 13:18:18;;;;;;;2.60;1.38;;;32.20;96.70;;;;;;4996893;28;20048;-73
2023/07/02 13:20:46;;;;;;;4.07;2.05;;;32.50;96.70;;;;;;4984025;28;20053;-72
2023/07/02 13:23:14;;;;;;;3.35;1.40;;;32.40;96.70;;;;;;5013531;28;20038;-72
2023/07/02 13:25:42;;;;;;;2.65;1.30;;;32.30;96.70;;;;;;5000687;28;20053;-72
2023/07/02 13:28:11;;;;;;;3.40;1.73;;;32.20;96.70;;;;;;5017839;28;20100;-71
2023/07/02 13:30:39;;;;;;;4.15;1.42;;;32.20;96.70;;;;;;5016410;28;20068;-70
2023/07/02 13:33:07;;;;;;;3.25;1.73;;;32.40;96.70;;;;;;5006735;28;20041;-70
2023/07/02 13:35:37;;;;;;;3.47;1.60;;;32.50;96.70;;;;;;5006444;28;20087;-71
2023/07/02 13:38:05;;;;;;;3.92;2.00;;;32.70;96.70;;;;;;5025359;28;20435;-72
2023/07/02 13:40:33;;;;;;;2.42;1.33;;;32.80;96.70;;;;;;5022815;28;20041;-72
2023/07/02 13:43:00;;;;;;;5.03;1.92;;;32.90;96.70;;;;;;4997034;28;20449;-71
2023/07/02 13:45:30;;;;;;;2.63;1.67;;;33.00;96.70;;;;;;5007400;28;20499;-71
2023/07/02 13:47:58;;;;;;;4.85;2.03;;;32.80;96.70;;;;;;4998757;28;20069;-71
2023/07/02 13:50:26;;;;;;;4.97;1.88;;;32.80;96.70;;;;;;5003920;28;20057;-71
2023/07/02 13:52:54;;;;;;;3.78;2.10;;;33.20;96.70;;;;;;5006609;28;20545;-71
2023/07/02 13:55:27;;;;;;;3.67;1.95;;;33.10;96.70;;;;;;5000812;28;20050;-75
2023/07/02 13:57:56;;;;;;;5.20;1.77;;;33.10;96.70;;;;;;5021450;28;20045;-74
2023/07/02 14:00:26;;;;;;;3.58;1.80;;;33.30;96.70;;;;;;5023211;28;20524;-73
2023/07/02 14:02:55;;;;;;;4.13;1.88;;;33.50;96.70;;;;;;5001610;28;20053;-73
2023/07/02 14:05:26;;;;;;;6.30;2.08;;;33.60;96.70;;;;;;4998383;28;20073;-74
2023/07/02 14:07:54;;;;;;;10.05;2.70;;;33.60;96.70;;;;;;5019901;28;20055;-71
2023/07/02 14:10:22;;;;;;;3.22;2.03;;;33.70;96.70;;;;;;5016000;28;20446;-71
2023/07/02 14:13:08;;;;;;;3.15;1.70;;;34.00;96.70;;;;;;5000544;28;21385;-71
2023/07/02 14:15:38;;;;;;;3.53;1.80;;;34.10;96.70;;;;;;4964335;28;20467;-70
2023/07/02 14:18:06;;;;;;;3.80;2.40;;;34.20;96.70;;;;;;4996996;28;20643;-71
2023/07/02 14:20:34;;;;;;;5.10;1.88;;;34.30;96.70;;;;;;4986482;28;20049;-71
2023/07/02 14:23:02;;;;;;;5.38;1.63;;;34.30;96.70;;;;;;4998682;28;20509;-71
2023/07/02 14:25:30;;;;;;;3.03;1.45;;;34.40;96.70;;;;;;5017420;28;20038;-71
2023/07/02 14:28:18;;;;;;;4.97;1.92;;;34.20;96.70;;;;;;5016227;28;20121;-71
2023/07/02 14:30:55;;;;;;;4.20;1.92;;;34.30;96.70;;;;;;5015340;28;20045;-71
2023/07/02 14:33:23;;;;;;;5.43;1.80;;;34.60;96.70;;;;;;5001936;28;20045;-71
2023/07/02 14:35:51;;;;;;;4.35;1.70;;;34.50;96.70;;;;;;5020735;28;20427;-69
2023/07/02 14:38:19;;;;;;;3.03;1.75;;;34.70;96.70;;;;;;5015356;28;20129;-71
2023/07/02 14:40:48;;;;;;;3.45;1.60;;;34.70;96.70;;;;;;5000364;28;20407;-71